Sylvan Lake, Canada
Current Conditions -  °F | °C
As of 10:00 AM on Thursday 30 Oct 2014 (Local Time) from CYQF Reporting Station
Moderate Fog Moderate Fog  
Wind Chill: -9°   Ceiling: 200
Heat Index: -3°   Visibility: 0.5mi
Dew Point: -3°   Wind: 13mph
Humidity: 100%   Direction: 160°SSE
Pressure: 30.19"   Gusts: 20mph
Location:  52.31°N, 114.09°W
Report Text: CYQF 301600Z 16011G17KT 1/2SM FZFG VV002 M03/M03 A3019 RMK FG8 SLP270
Loading
Personal Weather Stations






























Interactive Weather Map
Tropical Storm Tracking
New forecast layout! Learn more

10-Day Weather Forecast

Advertisements
Track Severe Weather on mobile